PWSweather.com
Personal Weather Stations
Station Observations
KOHAVON11
Long Road Station, Avon, OH 44011

Long Road StationAvon, OH 44011

Lat: 41.437, Lon: -82.0477

Elevation: 686

Station Type: Davis Vantage Pro2

http://www.avon-weather.com

High Low Average
Temperature 61.6°F16.4°F 42.3°F5.7°F 53.1°F11.7°F
Dew Point 52.8°F11.6°F 39.6°F4.2°F 48.1°F8.9°F
Winds 17.0 mph S27.4 mph S Calm Calm 2.5 mph 4.0 mph
Wind Gusts 18.0 mph29.0 mph -- 7.5 mph12.1 mph
Humidity 90% 72% 84%
Pressure 29.78 in1008.50 in 29.62 in1003.00 in -
Precipitation 0.00 in0.00 in - -
Hour Temp Dew Point Humidity Winds Wind Gusts Pressure Precip Precip Rate Daily Precip Total
12:04 AM 43.3°F6.3°C 40.6°F4.8°C 90% Calm Calm -- 29.77 in1008.1 mb 0.00 in0.0 mm 0.00 in0.0 mm 0.00 in0.0 mm
12:09 AM 43.7°F6.5°C 41.0°F5.0°C 90% Calm Calm -- 29.77 in1008.1 mb 0.00 in0.0 mm 0.00 in0.0 mm 0.00 in0.0 mm
12:14 AM 43.8°F6.6°C 41.1°F5.1°C 90% 1.0 mph SE1.6 kmh SE 1.0 mph1.6 kmh 29.77 in1008.1 mb 0.00 in0.0 mm 0.00 in0.0 mm 0.00 in0.0 mm
12:19 AM 43.8°F6.6°C 41.1°F5.1°C 90% 1.0 mph SE1.6 kmh SE 2.0 mph3.2 kmh 29.77 in1008.1 mb 0.00 in0.0 mm 0.00 in0.0 mm 0.00 in0.0 mm
12:24 AM 43.8°F6.6°C 41.1°F5.1°C 90% Calm Calm 1.0 mph1.6 kmh 29.77 in1008.1 mb 0.00 in0.0 mm 0.00 in0.0 mm 0.00 in0.0 mm
12:29 AM 43.6°F6.4°C 40.9°F4.9°C 90% 3.0 mph SSE4.8 kmh SSE 3.0 mph4.8 kmh 29.77 in1008.1 mb 0.00 in0.0 mm 0.00 in0.0 mm 0.00 in0.0 mm
12:34 AM 43.5°F6.4°C 40.8°F4.9°C 90% 1.0 mph SSE1.6 kmh SSE 3.0 mph4.8 kmh 29.77 in1008.1 mb 0.00 in0.0 mm 0.00 in0.0 mm 0.00 in0.0 mm
12:39 AM 43.3°F6.3°C 40.6°F4.8°C 90% Calm Calm -- 29.77 in1008.1 mb 0.00 in0.0 mm 0.00 in0.0 mm 0.00 in0.0 mm
12:44 AM 43.2°F6.2°C 40.5°F4.7°C 90% Calm Calm 2.0 mph3.2 kmh 29.77 in1008.1 mb 0.00 in0.0 mm 0.00 in0.0 mm 0.00 in0.0 mm
12:49 AM 43.1°F6.2°C 40.4°F4.7°C 90% 1.0 mph SE1.6 kmh SE 2.0 mph3.2 kmh 29.77 in1008.1 mb 0.00 in0.0 mm 0.00 in0.0 mm 0.00 in0.0 mm
12:54 AM 43.0°F6.1°C 40.3°F4.6°C 90% Calm Calm 3.0 mph4.8 kmh 29.77 in1008.1 mb 0.00 in0.0 mm 0.00 in0.0 mm 0.00 in0.0 mm
12:59 AM 42.8°F6.0°C 40.1°F4.5°C 90% 3.0 mph SE4.8 kmh SE 3.0 mph4.8 kmh 29.77 in1008.1 mb 0.00 in0.0 mm 0.00 in0.0 mm 0.00 in0.0 mm
01:04 AM 42.8°F6.0°C 40.1°F4.5°C 90% Calm Calm 4.0 mph6.4 kmh 29.77 in1008.1 mb 0.00 in0.0 mm 0.00 in0.0 mm 0.00 in0.0 mm
01:09 AM 42.7°F5.9°C 40.0°F4.4°C 90% 2.0 mph S3.2 kmh S 4.0 mph6.4 kmh 29.77 in1008.1 mb 0.00 in0.0 mm 0.00 in0.0 mm 0.00 in0.0 mm
01:14 AM 42.6°F5.9°C 39.9°F4.4°C 90% 1.0 mph SE1.6 kmh SE 4.0 mph6.4 kmh 29.77 in1008.1 mb 0.00 in0.0 mm 0.00 in0.0 mm 0.00 in0.0 mm
01:19 AM 42.6°F5.9°C 39.9°F4.4°C 90% 2.0 mph SE3.2 kmh SE 4.0 mph6.4 kmh 29.77 in1008.1 mb 0.00 in0.0 mm 0.00 in0.0 mm 0.00 in0.0 mm
01:24 AM 42.5°F5.8°C 39.8°F4.3°C 90% 4.0 mph SE6.4 kmh SE 4.0 mph6.4 kmh 29.77 in1008.1 mb 0.00 in0.0 mm 0.00 in0.0 mm 0.00 in0.0 mm
01:29 AM 42.3°F5.7°C 39.6°F4.2°C 90% 3.0 mph SE4.8 kmh SE 5.0 mph8.0 kmh 29.77 in1008.1 mb 0.00 in0.0 mm 0.00 in0.0 mm 0.00 in0.0 mm
01:34 AM 42.4°F5.8°C 39.7°F4.3°C 90% 3.0 mph SSE4.8 kmh SSE 5.0 mph8.0 kmh 29.77 in1008.1 mb 0.00 in0.0 mm 0.00 in0.0 mm 0.00 in0.0 mm
01:39 AM 42.8°F6.0°C 40.1°F4.5°C 90% 4.0 mph S6.4 kmh S 5.0 mph8.0 kmh 29.77 in1008.1 mb 0.00 in0.0 mm 0.00 in0.0 mm 0.00 in0.0 mm
01:44 AM 43.6°F6.4°C 40.9°F4.9°C 90% 5.0 mph SSE8.0 kmh SSE 5.0 mph8.0 kmh 29.77 in1008.1 mb 0.00 in0.0 mm 0.00 in0.0 mm 0.00 in0.0 mm
01:49 AM 44.3°F6.8°C 41.6°F5.3°C 90% 4.0 mph SE6.4 kmh SE 6.0 mph9.7 kmh 29.77 in1008.1 mb 0.00 in0.0 mm 0.00 in0.0 mm 0.00 in0.0 mm
01:54 AM 44.7°F7.1°C 42.0°F5.6°C 90% 2.0 mph SSE3.2 kmh SSE 6.0 mph9.7 kmh 29.77 in1008.1 mb 0.00 in0.0 mm 0.00 in0.0 mm 0.00 in0.0 mm
01:59 AM 45.0°F7.2°C 42.3°F5.7°C 90% 4.0 mph SSE6.4 kmh SSE 6.0 mph9.7 kmh 29.77 in1008.1 mb 0.00 in0.0 mm 0.00 in0.0 mm 0.00 in0.0 mm
02:04 AM 45.1°F7.3°C 42.4°F5.8°C 90% 4.0 mph SE6.4 kmh SE 8.0 mph12.9 kmh 29.77 in1008.1 mb 0.00 in0.0 mm 0.00 in0.0 mm 0.00 in0.0 mm
02:09 AM 45.2°F7.3°C 42.5°F5.8°C 90% 7.0 mph SE11.3 kmh SE 8.0 mph12.9 kmh 29.77 in1008.1 mb 0.00 in0.0 mm 0.00 in0.0 mm 0.00 in0.0 mm
02:14 AM 45.4°F7.4°C 42.6°F5.9°C 90% 7.0 mph S11.3 kmh S 9.0 mph14.5 kmh 29.77 in1008.1 mb 0.00 in0.0 mm 0.00 in0.0 mm 0.00 in0.0 mm
02:19 AM 45.6°F7.6°C 42.8°F6.0°C 90% 3.0 mph SE4.8 kmh SE 9.0 mph14.5 kmh 29.77 in1008.1 mb 0.00 in0.0 mm 0.00 in0.0 mm 0.00 in0.0 mm
02:24 AM 45.8°F7.7°C 43.0°F6.1°C 90% 2.0 mph SSE3.2 kmh SSE 9.0 mph14.5 kmh 29.78 in1008.5 mb 0.00 in0.0 mm 0.00 in0.0 mm 0.00 in0.0 mm
02:29 AM 46.0°F7.8°C 43.2°F6.2°C 90% 2.0 mph SSE3.2 kmh SSE 9.0 mph14.5 kmh 29.77 in1008.1 mb 0.00 in0.0 mm 0.00 in0.0 mm 0.00 in0.0 mm
02:34 AM 46.0°F7.8°C 43.2°F6.2°C 90% 2.0 mph S3.2 kmh S 6.0 mph9.7 kmh 29.77 in1008.1 mb 0.00 in0.0 mm 0.00 in0.0 mm 0.00 in0.0 mm
02:39 AM 46.1°F7.8°C 43.3°F6.3°C 90% 2.0 mph SE3.2 kmh SE 6.0 mph9.7 kmh 29.77 in1008.1 mb 0.00 in0.0 mm 0.00 in0.0 mm 0.00 in0.0 mm
02:44 AM 46.2°F7.9°C 43.4°F6.3°C 90% Calm Calm 5.0 mph8.0 kmh 29.77 in1008.1 mb 0.00 in0.0 mm 0.00 in0.0 mm 0.00 in0.0 mm
02:49 AM 46.2°F7.9°C 43.4°F6.3°C 90% Calm Calm 5.0 mph8.0 kmh 29.76 in1007.8 mb 0.00 in0.0 mm 0.00 in0.0 mm 0.00 in0.0 mm
02:54 AM 46.1°F7.8°C 43.3°F6.3°C 90% Calm Calm -- 29.76 in1007.8 mb 0.00 in0.0 mm 0.00 in0.0 mm 0.00 in0.0 mm
02:59 AM 46.0°F7.8°C 43.2°F6.2°C 90% Calm Calm -- 29.77 in1008.1 mb 0.00 in0.0 mm 0.00 in0.0 mm 0.00 in0.0 mm
03:04 AM 45.7°F7.6°C 42.9°F6.1°C 90% Calm Calm -- 29.77 in1008.1 mb 0.00 in0.0 mm 0.00 in0.0 mm 0.00 in0.0 mm
03:09 AM 45.6°F7.6°C 42.8°F6.0°C 90% 2.0 mph S3.2 kmh S 5.0 mph8.0 kmh 29.77 in1008.1 mb 0.00 in0.0 mm 0.00 in0.0 mm 0.00 in0.0 mm
03:14 AM 45.4°F7.4°C 42.6°F5.9°C 90% 1.0 mph SE1.6 kmh SE 2.0 mph3.2 kmh 29.76 in1007.8 mb 0.00 in0.0 mm 0.00 in0.0 mm 0.00 in0.0 mm
03:19 AM 45.3°F7.4°C 42.5°F5.8°C 90% Calm Calm 4.0 mph6.4 kmh 29.76 in1007.8 mb 0.00 in0.0 mm 0.00 in0.0 mm 0.00 in0.0 mm
03:24 AM 45.3°F7.4°C 42.5°F5.8°C 90% 2.0 mph SE3.2 kmh SE 6.0 mph9.7 kmh 29.76 in1007.8 mb 0.00 in0.0 mm 0.00 in0.0 mm 0.00 in0.0 mm
03:29 AM 45.3°F7.4°C 42.5°F5.8°C 90% Calm Calm 6.0 mph9.7 kmh 29.76 in1007.8 mb 0.00 in0.0 mm 0.00 in0.0 mm 0.00 in0.0 mm
03:34 AM 45.3°F7.4°C 42.5°F5.8°C 90% Calm Calm -- 29.76 in1007.8 mb 0.00 in0.0 mm 0.00 in0.0 mm 0.00 in0.0 mm
03:39 AM 45.2°F7.3°C 42.5°F5.8°C 90% Calm Calm 2.0 mph3.2 kmh 29.75 in1007.5 mb 0.00 in0.0 mm 0.00 in0.0 mm 0.00 in0.0 mm
03:44 AM 45.2°F7.3°C 42.5°F5.8°C 90% 1.0 mph SE1.6 kmh SE 3.0 mph4.8 kmh 29.76 in1007.8 mb 0.00 in0.0 mm 0.00 in0.0 mm 0.00 in0.0 mm
03:49 AM 45.2°F7.3°C 42.5°F5.8°C 90% Calm Calm -- 29.75 in1007.5 mb 0.00 in0.0 mm 0.00 in0.0 mm 0.00 in0.0 mm
03:54 AM 45.1°F7.3°C 42.4°F5.8°C 90% Calm Calm -- 29.76 in1007.8 mb 0.00 in0.0 mm 0.00 in0.0 mm 0.00 in0.0 mm
03:59 AM 45.0°F7.2°C 42.3°F5.7°C 90% Calm Calm -- 29.76 in1007.8 mb 0.00 in0.0 mm 0.00 in0.0 mm 0.00 in0.0 mm
04:04 AM 44.9°F7.2°C 42.2°F5.7°C 90% Calm Calm 1.0 mph1.6 kmh 29.76 in1007.8 mb 0.00 in0.0 mm 0.00 in0.0 mm 0.00 in0.0 mm
04:09 AM 44.9°F7.2°C 42.2°F5.7°C 90% Calm Calm -- 29.75 in1007.5 mb 0.00 in0.0 mm 0.00 in0.0 mm 0.00 in0.0 mm
04:14 AM 45.1°F7.3°C 42.4°F5.8°C 90% Calm Calm 4.0 mph6.4 kmh 29.75 in1007.5 mb 0.00 in0.0 mm 0.00 in0.0 mm 0.00 in0.0 mm
04:19 AM 45.4°F7.4°C 42.6°F5.9°C 90% 2.0 mph SE3.2 kmh SE 2.0 mph3.2 kmh 29.75 in1007.5 mb 0.00 in0.0 mm 0.00 in0.0 mm 0.00 in0.0 mm
04:24 AM 45.7°F7.6°C 42.9°F6.1°C 90% 4.0 mph SE6.4 kmh SE 6.0 mph9.7 kmh 29.75 in1007.5 mb 0.00 in0.0 mm 0.00 in0.0 mm 0.00 in0.0 mm
04:29 AM 46.0°F7.8°C 43.2°F6.2°C 90% 2.0 mph S3.2 kmh S 6.0 mph9.7 kmh 29.75 in1007.5 mb 0.00 in0.0 mm 0.00 in0.0 mm 0.00 in0.0 mm
04:34 AM 46.3°F7.9°C 43.5°F6.4°C 90% 4.0 mph ESE6.4 kmh ESE 6.0 mph9.7 kmh 29.74 in1007.1 mb 0.00 in0.0 mm 0.00 in0.0 mm 0.00 in0.0 mm
04:39 AM 46.4°F8.0°C 43.6°F6.4°C 90% 2.0 mph S3.2 kmh S 6.0 mph9.7 kmh 29.74 in1007.1 mb 0.00 in0.0 mm 0.00 in0.0 mm 0.00 in0.0 mm
04:44 AM 46.5°F8.1°C 43.7°F6.5°C 90% Calm Calm -- 29.74 in1007.1 mb 0.00 in0.0 mm 0.00 in0.0 mm 0.00 in0.0 mm
04:49 AM 46.6°F8.1°C 43.8°F6.6°C 90% 1.0 mph SSE1.6 kmh SSE 3.0 mph4.8 kmh 29.74 in1007.1 mb 0.00 in0.0 mm 0.00 in0.0 mm 0.00 in0.0 mm
04:54 AM 46.7°F8.2°C 43.9°F6.6°C 90% 1.0 mph SE1.6 kmh SE 7.0 mph11.3 kmh 29.74 in1007.1 mb 0.00 in0.0 mm 0.00 in0.0 mm 0.00 in0.0 mm
04:59 AM 46.8°F8.2°C 44.0°F6.7°C 90% 1.0 mph SE1.6 kmh SE 7.0 mph11.3 kmh 29.74 in1007.1 mb 0.00 in0.0 mm 0.00 in0.0 mm 0.00 in0.0 mm
05:04 AM 46.9°F8.3°C 44.1°F6.7°C 90% Calm Calm -- 29.74 in1007.1 mb 0.00 in0.0 mm 0.00 in0.0 mm 0.00 in0.0 mm
05:09 AM 47.0°F8.3°C 44.2°F6.8°C 90% Calm Calm 1.0 mph1.6 kmh 29.74 in1007.1 mb 0.00 in0.0 mm 0.00 in0.0 mm 0.00 in0.0 mm
05:14 AM 47.1°F8.4°C 44.3°F6.8°C 90% Calm Calm -- 29.74 in1007.1 mb 0.00 in0.0 mm 0.00 in0.0 mm 0.00 in0.0 mm
05:19 AM 47.1°F8.4°C 44.3°F6.8°C 90% Calm Calm -- 29.74 in1007.1 mb 0.00 in0.0 mm 0.00 in0.0 mm 0.00 in0.0 mm
05:24 AM 47.2°F8.4°C 44.4°F6.9°C 90% Calm Calm -- 29.74 in1007.1 mb 0.00 in0.0 mm 0.00 in0.0 mm 0.00 in0.0 mm
05:29 AM 47.2°F8.4°C 44.4°F6.9°C 90% Calm Calm -- 29.74 in1007.1 mb 0.00 in0.0 mm 0.00 in0.0 mm 0.00 in0.0 mm
05:34 AM 47.2°F8.4°C 44.4°F6.9°C 90% Calm Calm 4.0 mph6.4 kmh 29.74 in1007.1 mb 0.00 in0.0 mm 0.00 in0.0 mm 0.00 in0.0 mm
05:39 AM 47.2°F8.4°C 44.4°F6.9°C 90% Calm Calm 2.0 mph3.2 kmh 29.74 in1007.1 mb 0.00 in0.0 mm 0.00 in0.0 mm 0.00 in0.0 mm
05:44 AM 47.3°F8.5°C 44.5°F6.9°C 90% Calm Calm -- 29.74 in1007.1 mb 0.00 in0.0 mm 0.00 in0.0 mm 0.00 in0.0 mm
05:49 AM 47.3°F8.5°C 44.5°F6.9°C 90% Calm Calm 4.0 mph6.4 kmh 29.74 in1007.1 mb 0.00 in0.0 mm 0.00 in0.0 mm 0.00 in0.0 mm
05:54 AM 47.3°F8.5°C 44.5°F6.9°C 90% Calm Calm -- 29.74 in1007.1 mb 0.00 in0.0 mm 0.00 in0.0 mm 0.00 in0.0 mm
05:59 AM 47.3°F8.5°C 44.5°F6.9°C 90% 3.0 mph SE4.8 kmh SE 5.0 mph8.0 kmh 29.74 in1007.1 mb 0.00 in0.0 mm 0.00 in0.0 mm 0.00 in0.0 mm
06:04 AM 47.3°F8.5°C 44.5°F6.9°C 90% Calm Calm 8.0 mph12.9 kmh 29.73 in1006.8 mb 0.00 in0.0 mm 0.00 in0.0 mm 0.00 in0.0 mm
06:09 AM 47.2°F8.4°C 44.4°F6.9°C 90% Calm Calm 8.0 mph12.9 kmh 29.73 in1006.8 mb 0.00 in0.0 mm 0.00 in0.0 mm 0.00 in0.0 mm
06:14 AM 47.0°F8.3°C 44.2°F6.8°C 90% 2.0 mph SE3.2 kmh SE 7.0 mph11.3 kmh 29.73 in1006.8 mb 0.00 in0.0 mm 0.00 in0.0 mm 0.00 in0.0 mm
06:19 AM 47.0°F8.3°C 44.2°F6.8°C 90% Calm Calm -- 29.73 in1006.8 mb 0.00 in0.0 mm 0.00 in0.0 mm 0.00 in0.0 mm
06:24 AM 46.8°F8.2°C 44.0°F6.7°C 90% Calm Calm -- 29.73 in1006.8 mb 0.00 in0.0 mm 0.00 in0.0 mm 0.00 in0.0 mm
06:29 AM 46.7°F8.2°C 43.9°F6.6°C 90% 3.0 mph SE4.8 kmh SE 3.0 mph4.8 kmh 29.72 in1006.4 mb 0.00 in0.0 mm 0.00 in0.0 mm 0.00 in0.0 mm
06:34 AM 46.6°F8.1°C 43.8°F6.6°C 90% Calm Calm 5.0 mph8.0 kmh 29.73 in1006.8 mb 0.00 in0.0 mm 0.00 in0.0 mm 0.00 in0.0 mm
06:39 AM 46.4°F8.0°C 43.6°F6.4°C 90% 3.0 mph S4.8 kmh S 5.0 mph8.0 kmh 29.72 in1006.4 mb 0.00 in0.0 mm 0.00 in0.0 mm 0.00 in0.0 mm
06:44 AM 46.4°F8.0°C 43.6°F6.4°C 90% 3.0 mph S4.8 kmh S 4.0 mph6.4 kmh 29.73 in1006.8 mb 0.00 in0.0 mm 0.00 in0.0 mm 0.00 in0.0 mm
06:49 AM 46.4°F8.0°C 43.6°F6.4°C 90% Calm Calm 5.0 mph8.0 kmh 29.73 in1006.8 mb 0.00 in0.0 mm 0.00 in0.0 mm 0.00 in0.0 mm
06:54 AM 46.4°F8.0°C 43.6°F6.4°C 90% Calm Calm 4.0 mph6.4 kmh 29.73 in1006.8 mb 0.00 in0.0 mm 0.00 in0.0 mm 0.00 in0.0 mm
06:59 AM 46.4°F8.0°C 43.6°F6.4°C 90% Calm Calm -- 29.73 in1006.8 mb 0.00 in0.0 mm 0.00 in0.0 mm 0.00 in0.0 mm
07:04 AM 46.3°F7.9°C 43.5°F6.4°C 90% 1.0 mph SSW1.6 kmh SSW 3.0 mph4.8 kmh 29.73 in1006.8 mb 0.00 in0.0 mm 0.00 in0.0 mm 0.00 in0.0 mm
07:09 AM 46.3°F7.9°C 43.5°F6.4°C 90% Calm Calm 4.0 mph6.4 kmh 29.73 in1006.8 mb 0.00 in0.0 mm 0.00 in0.0 mm 0.00 in0.0 mm
07:14 AM 46.3°F7.9°C 43.5°F6.4°C 90% Calm Calm 4.0 mph6.4 kmh 29.73 in1006.8 mb 0.00 in0.0 mm 0.00 in0.0 mm 0.00 in0.0 mm
07:19 AM 46.3°F7.9°C 43.5°F6.4°C 90% Calm Calm 7.0 mph11.3 kmh 29.73 in1006.8 mb 0.00 in0.0 mm 0.00 in0.0 mm 0.00 in0.0 mm
07:24 AM 46.3°F7.9°C 43.5°F6.4°C 90% 1.0 mph S1.6 kmh S 1.0 mph1.6 kmh 29.73 in1006.8 mb 0.00 in0.0 mm 0.00 in0.0 mm 0.00 in0.0 mm
07:29 AM 46.2°F7.9°C 43.4°F6.3°C 90% Calm Calm 4.0 mph6.4 kmh 29.73 in1006.8 mb 0.00 in0.0 mm 0.00 in0.0 mm 0.00 in0.0 mm
07:34 AM 46.1°F7.8°C 43.3°F6.3°C 90% Calm Calm 4.0 mph6.4 kmh 29.73 in1006.8 mb 0.00 in0.0 mm 0.00 in0.0 mm 0.00 in0.0 mm
07:39 AM 46.0°F7.8°C 43.2°F6.2°C 90% Calm Calm -- 29.73 in1006.8 mb 0.00 in0.0 mm 0.00 in0.0 mm 0.00 in0.0 mm
07:44 AM 45.9°F7.7°C 43.1°F6.2°C 90% Calm Calm -- 29.72 in1006.4 mb 0.00 in0.0 mm 0.00 in0.0 mm 0.00 in0.0 mm
07:49 AM 45.9°F7.7°C 43.1°F6.2°C 90% 2.0 mph SSE3.2 kmh SSE 6.0 mph9.7 kmh 29.72 in1006.4 mb 0.00 in0.0 mm 0.00 in0.0 mm 0.00 in0.0 mm
07:54 AM 45.9°F7.7°C 43.1°F6.2°C 90% 1.0 mph SE1.6 kmh SE 5.0 mph8.0 kmh 29.72 in1006.4 mb 0.00 in0.0 mm 0.00 in0.0 mm 0.00 in0.0 mm
07:59 AM 45.8°F7.7°C 43.0°F6.1°C 90% Calm Calm -- 29.72 in1006.4 mb 0.00 in0.0 mm 0.00 in0.0 mm 0.00 in0.0 mm
08:04 AM 45.8°F7.7°C 43.0°F6.1°C 90% Calm Calm 5.0 mph8.0 kmh 29.72 in1006.4 mb 0.00 in0.0 mm 0.00 in0.0 mm 0.00 in0.0 mm
08:09 AM 45.8°F7.7°C 43.0°F6.1°C 90% Calm Calm 5.0 mph8.0 kmh 29.71 in1006.1 mb 0.00 in0.0 mm 0.00 in0.0 mm 0.00 in0.0 mm
08:14 AM 45.8°F7.7°C 43.0°F6.1°C 90% Calm Calm 2.0 mph3.2 kmh 29.71 in1006.1 mb 0.00 in0.0 mm 0.00 in0.0 mm 0.00 in0.0 mm
08:19 AM 45.9°F7.7°C 43.1°F6.2°C 90% Calm Calm 1.0 mph1.6 kmh 29.71 in1006.1 mb 0.00 in0.0 mm 0.00 in0.0 mm 0.00 in0.0 mm
08:24 AM 45.9°F7.7°C 43.1°F6.2°C 90% Calm Calm -- 29.72 in1006.4 mb 0.00 in0.0 mm 0.00 in0.0 mm 0.00 in0.0 mm
08:29 AM 46.2°F7.9°C 43.4°F6.3°C 90% Calm Calm 6.0 mph9.7 kmh 29.72 in1006.4 mb 0.00 in0.0 mm 0.00 in0.0 mm 0.00 in0.0 mm
08:34 AM 46.7°F8.2°C 43.9°F6.6°C 90% Calm Calm 6.0 mph9.7 kmh 29.72 in1006.4 mb 0.00 in0.0 mm 0.00 in0.0 mm 0.00 in0.0 mm
08:39 AM 47.1°F8.4°C 44.3°F6.8°C 90% 1.0 mph SSW1.6 kmh SSW 6.0 mph9.7 kmh 29.71 in1006.1 mb 0.00 in0.0 mm 0.00 in0.0 mm 0.00 in0.0 mm
08:44 AM 47.7°F8.7°C 44.9°F7.2°C 90% Calm Calm 10.0 mph16.1 kmh 29.71 in1006.1 mb 0.00 in0.0 mm 0.00 in0.0 mm 0.00 in0.0 mm
08:49 AM 48.3°F9.1°C 45.5°F7.5°C 90% 3.0 mph SSW4.8 kmh SSW 8.0 mph12.9 kmh 29.71 in1006.1 mb 0.00 in0.0 mm 0.00 in0.0 mm 0.00 in0.0 mm
08:54 AM 48.8°F9.3°C 46.0°F7.8°C 90% Calm Calm 4.0 mph6.4 kmh 29.71 in1006.1 mb 0.00 in0.0 mm 0.00 in0.0 mm 0.00 in0.0 mm
08:59 AM 49.2°F9.6°C 46.4°F8.0°C 90% Calm Calm 7.0 mph11.3 kmh 29.71 in1006.1 mb 0.00 in0.0 mm 0.00 in0.0 mm 0.00 in0.0 mm
09:04 AM 49.7°F9.8°C 46.9°F8.3°C 90% Calm Calm 7.0 mph11.3 kmh 29.71 in1006.1 mb 0.00 in0.0 mm 0.00 in0.0 mm 0.00 in0.0 mm
09:09 AM 50.2°F10.1°C 47.4°F8.6°C 90% Calm Calm 10.0 mph16.1 kmh 29.71 in1006.1 mb 0.00 in0.0 mm 0.00 in0.0 mm 0.00 in0.0 mm
09:14 AM 50.6°F10.3°C 47.5°F8.6°C 89% 1.0 mph S1.6 kmh S 10.0 mph16.1 kmh 29.71 in1006.1 mb 0.00 in0.0 mm 0.00 in0.0 mm 0.00 in0.0 mm
09:19 AM 51.0°F10.6°C 47.9°F8.8°C 89% Calm Calm 7.0 mph11.3 kmh 29.70 in1005.8 mb 0.00 in0.0 mm 0.00 in0.0 mm 0.00 in0.0 mm
09:24 AM 51.5°F10.8°C 48.0°F8.9°C 88% 7.0 mph S11.3 kmh S 9.0 mph14.5 kmh 29.70 in1005.8 mb 0.00 in0.0 mm 0.00 in0.0 mm 0.00 in0.0 mm
09:29 AM 51.8°F11.0°C 48.0°F8.9°C 87% 1.0 mph WSW1.6 kmh WSW 11.0 mph17.7 kmh 29.71 in1006.1 mb 0.00 in0.0 mm 0.00 in0.0 mm 0.00 in0.0 mm
09:34 AM 52.1°F11.2°C 48.3°F9.1°C 87% 6.0 mph S9.7 kmh S 11.0 mph17.7 kmh 29.71 in1006.1 mb 0.00 in0.0 mm 0.00 in0.0 mm 0.00 in0.0 mm
09:39 AM 52.4°F11.3°C 48.3°F9.1°C 86% 5.0 mph S8.0 kmh S 11.0 mph17.7 kmh 29.71 in1006.1 mb 0.00 in0.0 mm 0.00 in0.0 mm 0.00 in0.0 mm
09:44 AM 52.6°F11.4°C 48.5°F9.2°C 86% 3.0 mph S4.8 kmh S 11.0 mph17.7 kmh 29.71 in1006.1 mb 0.00 in0.0 mm 0.00 in0.0 mm 0.00 in0.0 mm
09:49 AM 52.9°F11.6°C 48.8°F9.3°C 86% 8.0 mph S12.9 kmh S 10.0 mph16.1 kmh 29.72 in1006.4 mb 0.00 in0.0 mm 0.00 in0.0 mm 0.00 in0.0 mm
09:54 AM 52.9°F11.6°C 48.8°F9.3°C 86% 7.0 mph S11.3 kmh S 12.0 mph19.3 kmh 29.72 in1006.4 mb 0.00 in0.0 mm 0.00 in0.0 mm 0.00 in0.0 mm
09:59 AM 53.0°F11.7°C 48.9°F9.4°C 86% 4.0 mph S6.4 kmh S 12.0 mph19.3 kmh 29.72 in1006.4 mb 0.00 in0.0 mm 0.00 in0.0 mm 0.00 in0.0 mm
10:04 AM 53.2°F11.8°C 49.1°F9.5°C 86% 7.0 mph S11.3 kmh S 12.0 mph19.3 kmh 29.72 in1006.4 mb 0.00 in0.0 mm 0.00 in0.0 mm 0.00 in0.0 mm
10:09 AM 53.6°F12.0°C 49.5°F9.7°C 86% 5.0 mph S8.0 kmh S 12.0 mph19.3 kmh 29.72 in1006.4 mb 0.00 in0.0 mm 0.00 in0.0 mm 0.00 in0.0 mm
10:14 AM 54.0°F12.2°C 49.5°F9.7°C 85% Calm Calm 10.0 mph16.1 kmh 29.71 in1006.1 mb 0.00 in0.0 mm 0.00 in0.0 mm 0.00 in0.0 mm
10:19 AM 54.7°F12.6°C 50.2°F10.1°C 85% Calm Calm 10.0 mph16.1 kmh 29.71 in1006.1 mb 0.00 in0.0 mm 0.00 in0.0 mm 0.00 in0.0 mm
10:24 AM 55.1°F12.8°C 50.3°F10.2°C 84% 6.0 mph SW9.7 kmh SW 8.0 mph12.9 kmh 29.71 in1006.1 mb 0.00 in0.0 mm 0.00 in0.0 mm 0.00 in0.0 mm
10:29 AM 55.8°F13.2°C 51.0°F10.6°C 84% 5.0 mph SE8.0 kmh SE 8.0 mph12.9 kmh 29.71 in1006.1 mb 0.00 in0.0 mm 0.00 in0.0 mm 0.00 in0.0 mm
10:34 AM 56.4°F13.6°C 50.9°F10.5°C 82% 9.0 mph S14.5 kmh S 13.0 mph20.9 kmh 29.71 in1006.1 mb 0.00 in0.0 mm 0.00 in0.0 mm 0.00 in0.0 mm
10:39 AM 56.8°F13.8°C 51.3°F10.7°C 82% 7.0 mph S11.3 kmh S 13.0 mph20.9 kmh 29.70 in1005.8 mb 0.00 in0.0 mm 0.00 in0.0 mm 0.00 in0.0 mm
10:44 AM 57.0°F13.9°C 51.1°F10.6°C 81% 9.0 mph S14.5 kmh S 13.0 mph20.9 kmh 29.70 in1005.8 mb 0.00 in0.0 mm 0.00 in0.0 mm 0.00 in0.0 mm
10:49 AM 57.2°F14.0°C 51.0°F10.6°C 80% 12.0 mph S19.3 kmh S 14.0 mph22.5 kmh 29.70 in1005.8 mb 0.00 in0.0 mm 0.00 in0.0 mm 0.00 in0.0 mm
10:54 AM 57.4°F14.1°C 51.5°F10.8°C 81% 7.0 mph S11.3 kmh S 14.0 mph22.5 kmh 29.70 in1005.8 mb 0.00 in0.0 mm 0.00 in0.0 mm 0.00 in0.0 mm
10:59 AM 57.4°F14.1°C 51.2°F10.7°C 80% 14.0 mph S22.5 kmh S 15.0 mph24.1 kmh 29.70 in1005.8 mb 0.00 in0.0 mm 0.00 in0.0 mm 0.00 in0.0 mm
11:04 AM 57.2°F14.0°C 51.0°F10.6°C 80% 17.0 mph S27.4 kmh S 17.0 mph27.4 kmh 29.70 in1005.8 mb 0.00 in0.0 mm 0.00 in0.0 mm 0.00 in0.0 mm
11:09 AM 57.3°F14.1°C 51.1°F10.6°C 80% 7.0 mph SSW11.3 kmh SSW 17.0 mph27.4 kmh 29.70 in1005.8 mb 0.00 in0.0 mm 0.00 in0.0 mm 0.00 in0.0 mm
11:14 AM 57.5°F14.2°C 51.3°F10.7°C 80% Calm Calm 17.0 mph27.4 kmh 29.69 in1005.4 mb 0.00 in0.0 mm 0.00 in0.0 mm 0.00 in0.0 mm
11:19 AM 57.8°F14.3°C 51.6°F10.9°C 80% 4.0 mph S6.4 kmh S 17.0 mph27.4 kmh 29.69 in1005.4 mb 0.00 in0.0 mm 0.00 in0.0 mm 0.00 in0.0 mm
11:24 AM 58.0°F14.4°C 51.4°F10.8°C 79% 5.0 mph S8.0 kmh S 17.0 mph27.4 kmh 29.68 in1005.1 mb 0.00 in0.0 mm 0.00 in0.0 mm 0.00 in0.0 mm
11:29 AM 58.3°F14.6°C 51.7°F10.9°C 79% 6.0 mph S9.7 kmh S 13.0 mph20.9 kmh 29.68 in1005.1 mb 0.00 in0.0 mm 0.00 in0.0 mm 0.00 in0.0 mm
11:34 AM 58.5°F14.7°C 51.5°F10.8°C 78% 11.0 mph S17.7 kmh S 13.0 mph20.9 kmh 29.68 in1005.1 mb 0.00 in0.0 mm 0.00 in0.0 mm 0.00 in0.0 mm
11:39 AM 58.9°F14.9°C 51.9°F11.1°C 78% 2.0 mph S3.2 kmh S 13.0 mph20.9 kmh 29.68 in1005.1 mb 0.00 in0.0 mm 0.00 in0.0 mm 0.00 in0.0 mm
11:44 AM 59.3°F15.2°C 52.0°F11.1°C 77% 12.0 mph S19.3 kmh S 13.0 mph20.9 kmh 29.67 in1004.7 mb 0.00 in0.0 mm 0.00 in0.0 mm 0.00 in0.0 mm
11:49 AM 59.4°F15.2°C 52.0°F11.1°C 77% 8.0 mph S12.9 kmh S 12.0 mph19.3 kmh 29.68 in1005.1 mb 0.00 in0.0 mm 0.00 in0.0 mm 0.00 in0.0 mm
11:54 AM 59.4°F15.2°C 52.0°F11.1°C 77% 2.0 mph SSE3.2 kmh SSE 12.0 mph19.3 kmh 29.68 in1005.1 mb 0.00 in0.0 mm 0.00 in0.0 mm 0.00 in0.0 mm
11:59 AM 59.6°F15.3°C 52.2°F11.2°C 77% 5.0 mph SSW8.0 kmh SSW 12.0 mph19.3 kmh 29.67 in1004.7 mb 0.00 in0.0 mm 0.00 in0.0 mm 0.00 in0.0 mm
12:04 PM 60.0°F15.6°C 52.3°F11.3°C 76% 6.0 mph S9.7 kmh S 14.0 mph22.5 kmh 29.67 in1004.7 mb 0.00 in0.0 mm 0.00 in0.0 mm 0.00 in0.0 mm
12:09 PM 60.3°F15.7°C 52.2°F11.2°C 75% 7.0 mph SW11.3 kmh SW 14.0 mph22.5 kmh 29.67 in1004.7 mb 0.00 in0.0 mm 0.00 in0.0 mm 0.00 in0.0 mm
12:14 PM 60.6°F15.9°C 52.1°F11.2°C 74% 3.0 mph S4.8 kmh S 14.0 mph22.5 kmh 29.67 in1004.7 mb 0.00 in0.0 mm 0.00 in0.0 mm 0.00 in0.0 mm
12:19 PM 60.8°F16.0°C 52.3°F11.3°C 74% 7.0 mph SSW11.3 kmh SSW 16.0 mph25.7 kmh 29.67 in1004.7 mb 0.00 in0.0 mm 0.00 in0.0 mm 0.00 in0.0 mm
12:24 PM 60.9°F16.1°C 52.0°F11.1°C 73% 8.0 mph S12.9 kmh S 16.0 mph25.7 kmh 29.67 in1004.7 mb 0.00 in0.0 mm 0.00 in0.0 mm 0.00 in0.0 mm
12:29 PM 60.7°F15.9°C 51.8°F11.0°C 73% 3.0 mph S4.8 kmh S 16.0 mph25.7 kmh 29.66 in1004.4 mb 0.00 in0.0 mm 0.00 in0.0 mm 0.00 in0.0 mm
12:34 PM 60.9°F16.1°C 52.8°F11.6°C 75% Calm Calm 16.0 mph25.7 kmh 29.66 in1004.4 mb 0.00 in0.0 mm 0.00 in0.0 mm 0.00 in0.0 mm
12:39 PM 61.1°F16.2°C 52.6°F11.4°C 74% 5.0 mph S8.0 kmh S 9.0 mph14.5 kmh 29.66 in1004.4 mb 0.00 in0.0 mm 0.00 in0.0 mm 0.00 in0.0 mm
12:44 PM 61.2°F16.2°C 52.3°F11.3°C 73% 8.0 mph S12.9 kmh S 9.0 mph14.5 kmh 29.66 in1004.4 mb 0.00 in0.0 mm 0.00 in0.0 mm 0.00 in0.0 mm
12:49 PM 61.5°F16.4°C 52.6°F11.4°C 73% 6.0 mph SSW9.7 kmh SSW 9.0 mph14.5 kmh 29.66 in1004.4 mb 0.00 in0.0 mm 0.00 in0.0 mm 0.00 in0.0 mm
12:54 PM 61.5°F16.4°C 52.6°F11.4°C 73% Calm Calm 12.0 mph19.3 kmh 29.65 in1004.1 mb 0.00 in0.0 mm 0.00 in0.0 mm 0.00 in0.0 mm
12:59 PM 61.6°F16.4°C 52.7°F11.5°C 73% 8.0 mph S12.9 kmh S 14.0 mph22.5 kmh 29.65 in1004.1 mb 0.00 in0.0 mm 0.00 in0.0 mm 0.00 in0.0 mm
01:04 PM 61.3°F16.3°C 52.0°F11.1°C 72% 13.0 mph S20.9 kmh S 16.0 mph25.7 kmh 29.65 in1004.1 mb 0.00 in0.0 mm 0.00 in0.0 mm 0.00 in0.0 mm
01:09 PM 61.2°F16.2°C 52.3°F11.3°C 73% 5.0 mph S8.0 kmh S 16.0 mph25.7 kmh 29.64 in1003.7 mb 0.00 in0.0 mm 0.00 in0.0 mm 0.00 in0.0 mm
01:14 PM 61.1°F16.2°C 52.2°F11.2°C 73% 14.0 mph S22.5 kmh S 16.0 mph25.7 kmh 29.64 in1003.7 mb 0.00 in0.0 mm 0.00 in0.0 mm 0.00 in0.0 mm
01:19 PM 61.1°F16.2°C 52.6°F11.4°C 74% 1.0 mph SSW1.6 kmh SSW 16.0 mph25.7 kmh 29.64 in1003.7 mb 0.00 in0.0 mm 0.00 in0.0 mm 0.00 in0.0 mm
01:24 PM 61.1°F16.2°C 52.6°F11.4°C 74% 4.0 mph S6.4 kmh S 14.0 mph22.5 kmh 29.64 in1003.7 mb 0.00 in0.0 mm 0.00 in0.0 mm 0.00 in0.0 mm
01:29 PM 61.2°F16.2°C 52.7°F11.5°C 74% 5.0 mph S8.0 kmh S 14.0 mph22.5 kmh 29.64 in1003.7 mb 0.00 in0.0 mm 0.00 in0.0 mm 0.00 in0.0 mm
01:34 PM 61.1°F16.2°C 52.6°F11.4°C 74% 8.0 mph S12.9 kmh S 12.0 mph19.3 kmh 29.64 in1003.7 mb 0.00 in0.0 mm 0.00 in0.0 mm 0.00 in0.0 mm
01:39 PM 61.1°F16.2°C 52.6°F11.4°C 74% 7.0 mph S11.3 kmh S 18.0 mph29.0 kmh 29.64 in1003.7 mb 0.00 in0.0 mm 0.00 in0.0 mm 0.00 in0.0 mm
01:44 PM 61.1°F16.2°C 52.6°F11.4°C 74% 5.0 mph SW8.0 kmh SW 18.0 mph29.0 kmh 29.64 in1003.7 mb 0.00 in0.0 mm 0.00 in0.0 mm 0.00 in0.0 mm
01:49 PM 61.0°F16.1°C 52.1°F11.2°C 73% 3.0 mph SSW4.8 kmh SSW 18.0 mph29.0 kmh 29.64 in1003.7 mb 0.00 in0.0 mm 0.00 in0.0 mm 0.00 in0.0 mm
01:54 PM 60.9°F16.1°C 52.4°F11.3°C 74% 3.0 mph WSW4.8 kmh WSW 18.0 mph29.0 kmh 29.63 in1003.4 mb 0.00 in0.0 mm 0.00 in0.0 mm 0.00 in0.0 mm
01:59 PM 60.8°F16.0°C 52.7°F11.5°C 75% 7.0 mph S11.3 kmh S 14.0 mph22.5 kmh 29.63 in1003.4 mb 0.00 in0.0 mm 0.00 in0.0 mm 0.00 in0.0 mm
02:04 PM 60.8°F16.0°C 52.7°F11.5°C 75% 3.0 mph SSW4.8 kmh SSW 15.0 mph24.1 kmh 29.63 in1003.4 mb 0.00 in0.0 mm 0.00 in0.0 mm 0.00 in0.0 mm
02:09 PM 60.8°F16.0°C 52.7°F11.5°C 75% 7.0 mph S11.3 kmh S 16.0 mph25.7 kmh 29.63 in1003.4 mb 0.00 in0.0 mm 0.00 in0.0 mm 0.00 in0.0 mm
02:14 PM 60.7°F15.9°C 52.6°F11.4°C 75% 5.0 mph S8.0 kmh S 16.0 mph25.7 kmh 29.63 in1003.4 mb 0.00 in0.0 mm 0.00 in0.0 mm 0.00 in0.0 mm
02:19 PM 60.7°F15.9°C 52.6°F11.4°C 75% 8.0 mph S12.9 kmh S 16.0 mph25.7 kmh 29.63 in1003.4 mb 0.00 in0.0 mm 0.00 in0.0 mm 0.00 in0.0 mm
02:24 PM 60.6°F15.9°C 52.5°F11.4°C 75% 11.0 mph S17.7 kmh S 16.0 mph25.7 kmh 29.63 in1003.4 mb 0.00 in0.0 mm 0.00 in0.0 mm 0.00 in0.0 mm
02:29 PM 60.5°F15.8°C 52.4°F11.3°C 75% 7.0 mph S11.3 kmh S 16.0 mph25.7 kmh 29.63 in1003.4 mb 0.00 in0.0 mm 0.00 in0.0 mm 0.00 in0.0 mm
02:34 PM 60.4°F15.8°C 52.3°F11.3°C 75% 9.0 mph S14.5 kmh S 17.0 mph27.4 kmh 29.63 in1003.4 mb 0.00 in0.0 mm 0.00 in0.0 mm 0.00 in0.0 mm
02:39 PM 60.3°F15.7°C 52.6°F11.4°C 76% 6.0 mph S9.7 kmh S 17.0 mph27.4 kmh 29.63 in1003.4 mb 0.00 in0.0 mm 0.00 in0.0 mm 0.00 in0.0 mm
02:44 PM 60.3°F15.7°C 52.6°F11.4°C 76% 7.0 mph S11.3 kmh S 17.0 mph27.4 kmh 29.64 in1003.7 mb 0.00 in0.0 mm 0.00 in0.0 mm 0.00 in0.0 mm
02:49 PM 60.2°F15.7°C 52.5°F11.4°C 76% 5.0 mph S8.0 kmh S 17.0 mph27.4 kmh 29.64 in1003.7 mb 0.00 in0.0 mm 0.00 in0.0 mm 0.00 in0.0 mm
02:54 PM 60.1°F15.6°C 52.4°F11.3°C 76% 10.0 mph S16.1 kmh S 15.0 mph24.1 kmh 29.63 in1003.4 mb 0.00 in0.0 mm 0.00 in0.0 mm 0.00 in0.0 mm
02:59 PM 60.0°F15.6°C 52.3°F11.3°C 76% 8.0 mph S12.9 kmh S 15.0 mph24.1 kmh 29.64 in1003.7 mb 0.00 in0.0 mm 0.00 in0.0 mm 0.00 in0.0 mm
03:04 PM 60.0°F15.6°C 52.3°F11.3°C 76% 4.0 mph SSW6.4 kmh SSW 14.0 mph22.5 kmh 29.64 in1003.7 mb 0.00 in0.0 mm 0.00 in0.0 mm 0.00 in0.0 mm
03:09 PM 59.9°F15.5°C 52.5°F11.4°C 77% 2.0 mph SSW3.2 kmh SSW 14.0 mph22.5 kmh 29.64 in1003.7 mb 0.00 in0.0 mm 0.00 in0.0 mm 0.00 in0.0 mm
03:14 PM 59.8°F15.4°C 52.4°F11.3°C 77% 1.0 mph S1.6 kmh S 14.0 mph22.5 kmh 29.64 in1003.7 mb 0.00 in0.0 mm 0.00 in0.0 mm 0.00 in0.0 mm
03:19 PM 59.8°F15.4°C 52.4°F11.3°C 77% 6.0 mph S9.7 kmh S 14.0 mph22.5 kmh 29.64 in1003.7 mb 0.00 in0.0 mm 0.00 in0.0 mm 0.00 in0.0 mm
03:24 PM 59.8°F15.4°C 52.4°F11.3°C 77% 5.0 mph SSE8.0 kmh SSE 11.0 mph17.7 kmh 29.64 in1003.7 mb 0.00 in0.0 mm 0.00 in0.0 mm 0.00 in0.0 mm
03:29 PM 59.8°F15.4°C 52.4°F11.3°C 77% 4.0 mph S6.4 kmh S 11.0 mph17.7 kmh 29.63 in1003.4 mb 0.00 in0.0 mm 0.00 in0.0 mm 0.00 in0.0 mm
03:34 PM 59.7°F15.4°C 52.7°F11.5°C 78% 4.0 mph S6.4 kmh S 11.0 mph17.7 kmh 29.63 in1003.4 mb 0.00 in0.0 mm 0.00 in0.0 mm 0.00 in0.0 mm
03:39 PM 59.8°F15.4°C 52.8°F11.6°C 78% 5.0 mph S8.0 kmh S 11.0 mph17.7 kmh 29.63 in1003.4 mb 0.00 in0.0 mm 0.00 in0.0 mm 0.00 in0.0 mm
03:44 PM 59.7°F15.4°C 52.7°F11.5°C 78% 6.0 mph SSW9.7 kmh SSW 10.0 mph16.1 kmh 29.63 in1003.4 mb 0.00 in0.0 mm 0.00 in0.0 mm 0.00 in0.0 mm
03:49 PM 59.7°F15.4°C 52.7°F11.5°C 78% 2.0 mph S3.2 kmh S 10.0 mph16.1 kmh 29.63 in1003.4 mb 0.00 in0.0 mm 0.00 in0.0 mm 0.00 in0.0 mm
03:54 PM 59.7°F15.4°C 52.7°F11.5°C 78% Calm Calm 10.0 mph16.1 kmh 29.63 in1003.4 mb 0.00 in0.0 mm 0.00 in0.0 mm 0.00 in0.0 mm
03:59 PM 59.6°F15.3°C 52.6°F11.4°C 78% 7.0 mph S11.3 kmh S 10.0 mph16.1 kmh 29.63 in1003.4 mb 0.00 in0.0 mm 0.00 in0.0 mm 0.00 in0.0 mm
04:04 PM 59.5°F15.3°C 52.5°F11.4°C 78% 1.0 mph SSW1.6 kmh SSW 10.0 mph16.1 kmh 29.63 in1003.4 mb 0.00 in0.0 mm 0.00 in0.0 mm 0.00 in0.0 mm
04:09 PM 59.5°F15.3°C 52.5°F11.4°C 78% 4.0 mph S6.4 kmh S 10.0 mph16.1 kmh 29.63 in1003.4 mb 0.00 in0.0 mm 0.00 in0.0 mm 0.00 in0.0 mm
04:14 PM 59.4°F15.2°C 52.4°F11.3°C 78% 7.0 mph S11.3 kmh S 10.0 mph16.1 kmh 29.63 in1003.4 mb 0.00 in0.0 mm 0.00 in0.0 mm 0.00 in0.0 mm
04:19 PM 59.4°F15.2°C 52.4°F11.3°C 78% 3.0 mph SSW4.8 kmh SSW 10.0 mph16.1 kmh 29.63 in1003.4 mb 0.00 in0.0 mm 0.00 in0.0 mm 0.00 in0.0 mm
04:24 PM 59.3°F15.2°C 52.3°F11.3°C 78% 1.0 mph S1.6 kmh S 10.0 mph16.1 kmh 29.63 in1003.4 mb 0.00 in0.0 mm 0.00 in0.0 mm 0.00 in0.0 mm
04:29 PM 59.2°F15.1°C 52.2°F11.2°C 78% Calm Calm 9.0 mph14.5 kmh 29.63 in1003.4 mb 0.00 in0.0 mm 0.00 in0.0 mm 0.00 in0.0 mm
04:34 PM 59.1°F15.1°C 52.1°F11.2°C 78% 4.0 mph S6.4 kmh S 11.0 mph17.7 kmh 29.63 in1003.4 mb 0.00 in0.0 mm 0.00 in0.0 mm 0.00 in0.0 mm
04:39 PM 59.0°F15.0°C 52.0°F11.1°C 78% 3.0 mph SW4.8 kmh SW 11.0 mph17.7 kmh 29.63 in1003.4 mb 0.00 in0.0 mm 0.00 in0.0 mm 0.00 in0.0 mm
04:44 PM 58.9°F14.9°C 51.9°F11.1°C 78% Calm Calm 2.0 mph3.2 kmh 29.62 in1003.0 mb 0.00 in0.0 mm 0.00 in0.0 mm 0.00 in0.0 mm
04:49 PM 58.9°F14.9°C 51.9°F11.1°C 78% Calm Calm 2.0 mph3.2 kmh 29.63 in1003.4 mb 0.00 in0.0 mm 0.00 in0.0 mm 0.00 in0.0 mm
04:54 PM 58.7°F14.8°C 52.1°F11.2°C 79% Calm Calm 9.0 mph14.5 kmh 29.63 in1003.4 mb 0.00 in0.0 mm 0.00 in0.0 mm 0.00 in0.0 mm
04:59 PM 58.6°F14.8°C 52.0°F11.1°C 79% Calm Calm 4.0 mph6.4 kmh 29.63 in1003.4 mb 0.00 in0.0 mm 0.00 in0.0 mm 0.00 in0.0 mm
05:04 PM 58.5°F14.7°C 51.9°F11.1°C 79% Calm Calm 4.0 mph6.4 kmh 29.63 in1003.4 mb 0.00 in0.0 mm 0.00 in0.0 mm 0.00 in0.0 mm
05:09 PM 58.4°F14.7°C 51.8°F11.0°C 79% Calm Calm 9.0 mph14.5 kmh 29.63 in1003.4 mb 0.00 in0.0 mm 0.00 in0.0 mm 0.00 in0.0 mm
05:14 PM 58.3°F14.6°C 51.7°F10.9°C 79% 3.0 mph SE4.8 kmh SE 9.0 mph14.5 kmh 29.63 in1003.4 mb 0.00 in0.0 mm 0.00 in0.0 mm 0.00 in0.0 mm
05:19 PM 58.1°F14.5°C 51.9°F11.1°C 80% Calm Calm 5.0 mph8.0 kmh 29.63 in1003.4 mb 0.00 in0.0 mm 0.00 in0.0 mm 0.00 in0.0 mm
05:24 PM 58.0°F14.4°C 51.8°F11.0°C 80% Calm Calm 3.0 mph4.8 kmh 29.63 in1003.4 mb 0.00 in0.0 mm 0.00 in0.0 mm 0.00 in0.0 mm
05:29 PM 57.9°F14.4°C 51.7°F10.9°C 80% Calm Calm 2.0 mph3.2 kmh 29.63 in1003.4 mb 0.00 in0.0 mm 0.00 in0.0 mm 0.00 in0.0 mm
05:34 PM 57.8°F14.3°C 51.9°F11.1°C 81% 2.0 mph SE3.2 kmh SE 6.0 mph9.7 kmh 29.63 in1003.4 mb 0.00 in0.0 mm 0.00 in0.0 mm 0.00 in0.0 mm
05:39 PM 57.6°F14.2°C 51.7°F10.9°C 81% Calm Calm 4.0 mph6.4 kmh 29.63 in1003.4 mb 0.00 in0.0 mm 0.00 in0.0 mm 0.00 in0.0 mm
05:44 PM 57.5°F14.2°C 51.6°F10.9°C 81% Calm Calm 4.0 mph6.4 kmh 29.64 in1003.7 mb 0.00 in0.0 mm 0.00 in0.0 mm 0.00 in0.0 mm
05:49 PM 57.4°F14.1°C 51.5°F10.8°C 81% Calm Calm 3.0 mph4.8 kmh 29.64 in1003.7 mb 0.00 in0.0 mm 0.00 in0.0 mm 0.00 in0.0 mm
05:54 PM 57.2°F14.0°C 51.3°F10.7°C 81% 3.0 mph S4.8 kmh S 5.0 mph8.0 kmh 29.64 in1003.7 mb 0.00 in0.0 mm 0.00 in0.0 mm 0.00 in0.0 mm
05:59 PM 57.1°F13.9°C 51.6°F10.9°C 82% Calm Calm 7.0 mph11.3 kmh 29.64 in1003.7 mb 0.00 in0.0 mm 0.00 in0.0 mm 0.00 in0.0 mm
06:04 PM 57.1°F13.9°C 51.6°F10.9°C 82% Calm Calm -- 29.64 in1003.7 mb 0.00 in0.0 mm 0.00 in0.0 mm 0.00 in0.0 mm
06:09 PM 57.0°F13.9°C 51.5°F10.8°C 82% 1.0 mph ESE1.6 kmh ESE 9.0 mph14.5 kmh 29.64 in1003.7 mb 0.00 in0.0 mm 0.00 in0.0 mm 0.00 in0.0 mm
06:14 PM 56.9°F13.8°C 51.4°F10.8°C 82% 1.0 mph SSE1.6 kmh SSE 9.0 mph14.5 kmh 29.64 in1003.7 mb 0.00 in0.0 mm 0.00 in0.0 mm 0.00 in0.0 mm
06:19 PM 56.9°F13.8°C 51.4°F10.8°C 82% 2.0 mph SE3.2 kmh SE 9.0 mph14.5 kmh 29.64 in1003.7 mb 0.00 in0.0 mm 0.00 in0.0 mm 0.00 in0.0 mm
06:24 PM 56.8°F13.8°C 51.3°F10.7°C 82% Calm Calm 9.0 mph14.5 kmh 29.64 in1003.7 mb 0.00 in0.0 mm 0.00 in0.0 mm 0.00 in0.0 mm
06:29 PM 56.8°F13.8°C 51.3°F10.7°C 82% Calm Calm 7.0 mph11.3 kmh 29.64 in1003.7 mb 0.00 in0.0 mm 0.00 in0.0 mm 0.00 in0.0 mm
06:34 PM 56.7°F13.7°C 51.2°F10.7°C 82% 1.0 mph S1.6 kmh S 6.0 mph9.7 kmh 29.64 in1003.7 mb 0.00 in0.0 mm 0.00 in0.0 mm 0.00 in0.0 mm
06:39 PM 56.7°F13.7°C 51.2°F10.7°C 82% Calm Calm 1.0 mph1.6 kmh 29.64 in1003.7 mb 0.00 in0.0 mm 0.00 in0.0 mm 0.00 in0.0 mm
06:44 PM 56.6°F13.7°C 51.1°F10.6°C 82% Calm Calm 5.0 mph8.0 kmh 29.65 in1004.1 mb 0.00 in0.0 mm 0.00 in0.0 mm 0.00 in0.0 mm
06:49 PM 56.6°F13.7°C 51.1°F10.6°C 82% 4.0 mph S6.4 kmh S 5.0 mph8.0 kmh 29.64 in1003.7 mb 0.00 in0.0 mm 0.00 in0.0 mm 0.00 in0.0 mm
06:54 PM 56.6°F13.7°C 51.4°F10.8°C 83% Calm Calm 6.0 mph9.7 kmh 29.65 in1004.1 mb 0.00 in0.0 mm 0.00 in0.0 mm 0.00 in0.0 mm
06:59 PM 56.5°F13.6°C 51.3°F10.7°C 83% Calm Calm -- 29.65 in1004.1 mb 0.00 in0.0 mm 0.00 in0.0 mm 0.00 in0.0 mm
07:04 PM 56.5°F13.6°C 51.3°F10.7°C 83% Calm Calm 1.0 mph1.6 kmh 29.65 in1004.1 mb 0.00 in0.0 mm 0.00 in0.0 mm 0.00 in0.0 mm
07:09 PM 56.4°F13.6°C 51.2°F10.7°C 83% Calm Calm 4.0 mph6.4 kmh 29.64 in1003.7 mb 0.00 in0.0 mm 0.00 in0.0 mm 0.00 in0.0 mm
07:14 PM 56.4°F13.6°C 51.2°F10.7°C 83% 1.0 mph S1.6 kmh S 4.0 mph6.4 kmh 29.64 in1003.7 mb 0.00 in0.0 mm 0.00 in0.0 mm 0.00 in0.0 mm
07:19 PM 56.4°F13.6°C 51.2°F10.7°C 83% Calm Calm 2.0 mph3.2 kmh 29.64 in1003.7 mb 0.00 in0.0 mm 0.00 in0.0 mm 0.00 in0.0 mm
07:24 PM 56.3°F13.5°C 51.1°F10.6°C 83% 1.0 mph SSE1.6 kmh SSE 4.0 mph6.4 kmh 29.64 in1003.7 mb 0.00 in0.0 mm 0.00 in0.0 mm 0.00 in0.0 mm
07:29 PM 56.3°F13.5°C 51.1°F10.6°C 83% 3.0 mph S4.8 kmh S 4.0 mph6.4 kmh 29.64 in1003.7 mb 0.00 in0.0 mm 0.00 in0.0 mm 0.00 in0.0 mm
07:34 PM 56.2°F13.4°C 51.0°F10.6°C 83% 1.0 mph S1.6 kmh S 1.0 mph1.6 kmh 29.64 in1003.7 mb 0.00 in0.0 mm 0.00 in0.0 mm 0.00 in0.0 mm
07:39 PM 56.2°F13.4°C 51.0°F10.6°C 83% Calm Calm 6.0 mph9.7 kmh 29.64 in1003.7 mb 0.00 in0.0 mm 0.00 in0.0 mm 0.00 in0.0 mm
07:44 PM 56.2°F13.4°C 51.0°F10.6°C 83% Calm Calm 7.0 mph11.3 kmh 29.64 in1003.7 mb 0.00 in0.0 mm 0.00 in0.0 mm 0.00 in0.0 mm
07:54 PM 56.1°F13.4°C 50.9°F10.5°C 83% Calm Calm 7.0 mph11.3 kmh 29.64 in1003.7 mb 0.00 in0.0 mm 0.00 in0.0 mm 0.00 in0.0 mm
07:59 PM 56.1°F13.4°C 50.9°F10.5°C 83% Calm Calm 5.0 mph8.0 kmh 29.64 in1003.7 mb 0.00 in0.0 mm 0.00 in0.0 mm 0.00 in0.0 mm
08:04 PM 56.1°F13.4°C 50.9°F10.5°C 83% 3.0 mph S4.8 kmh S 4.0 mph6.4 kmh 29.64 in1003.7 mb 0.00 in0.0 mm 0.00 in0.0 mm 0.00 in0.0 mm
08:09 PM 56.2°F13.4°C 51.0°F10.6°C 83% 1.0 mph SE1.6 kmh SE 5.0 mph8.0 kmh 29.64 in1003.7 mb 0.00 in0.0 mm 0.00 in0.0 mm 0.00 in0.0 mm
08:14 PM 56.2°F13.4°C 51.0°F10.6°C 83% 2.0 mph S3.2 kmh S 8.0 mph12.9 kmh 29.64 in1003.7 mb 0.00 in0.0 mm 0.00 in0.0 mm 0.00 in0.0 mm
08:19 PM 56.2°F13.4°C 51.0°F10.6°C 83% Calm Calm 8.0 mph12.9 kmh 29.64 in1003.7 mb 0.00 in0.0 mm 0.00 in0.0 mm 0.00 in0.0 mm
08:24 PM 56.2°F13.4°C 51.0°F10.6°C 83% 1.0 mph SE1.6 kmh SE 8.0 mph12.9 kmh 29.63 in1003.4 mb 0.00 in0.0 mm 0.00 in0.0 mm 0.00 in0.0 mm
08:29 PM 56.2°F13.4°C 51.0°F10.6°C 83% Calm Calm 8.0 mph12.9 kmh 29.64 in1003.7 mb 0.00 in0.0 mm 0.00 in0.0 mm 0.00 in0.0 mm
08:34 PM 56.2°F13.4°C 51.0°F10.6°C 83% 1.0 mph SSE1.6 kmh SSE 8.0 mph12.9 kmh 29.63 in1003.4 mb 0.00 in0.0 mm 0.00 in0.0 mm 0.00 in0.0 mm
08:39 PM 56.2°F13.4°C 51.0°F10.6°C 83% Calm Calm 8.0 mph12.9 kmh 29.63 in1003.4 mb 0.00 in0.0 mm 0.00 in0.0 mm 0.00 in0.0 mm
08:44 PM 56.2°F13.4°C 51.0°F10.6°C 83% Calm Calm 5.0 mph8.0 kmh 29.63 in1003.4 mb 0.00 in0.0 mm 0.00 in0.0 mm 0.00 in0.0 mm
08:49 PM 56.2°F13.4°C 51.0°F10.6°C 83% 2.0 mph SE3.2 kmh SE 7.0 mph11.3 kmh 29.63 in1003.4 mb 0.00 in0.0 mm 0.00 in0.0 mm 0.00 in0.0 mm
08:54 PM 56.2°F13.4°C 51.0°F10.6°C 83% Calm Calm 6.0 mph9.7 kmh 29.63 in1003.4 mb 0.00 in0.0 mm 0.00 in0.0 mm 0.00 in0.0 mm
08:59 PM 56.2°F13.4°C 51.0°F10.6°C 83% Calm Calm 7.0 mph11.3 kmh 29.63 in1003.4 mb 0.00 in0.0 mm 0.00 in0.0 mm 0.00 in0.0 mm
09:04 PM 56.2°F13.4°C 50.7°F10.4°C 82% 4.0 mph SE6.4 kmh SE 7.0 mph11.3 kmh 29.63 in1003.4 mb 0.00 in0.0 mm 0.00 in0.0 mm 0.00 in0.0 mm
09:09 PM 56.2°F13.4°C 50.7°F10.4°C 82% 2.0 mph SE3.2 kmh SE 7.0 mph11.3 kmh 29.63 in1003.4 mb 0.00 in0.0 mm 0.00 in0.0 mm 0.00 in0.0 mm
09:14 PM 56.3°F13.5°C 50.8°F10.4°C 82% 2.0 mph SE3.2 kmh SE 10.0 mph16.1 kmh 29.63 in1003.4 mb 0.00 in0.0 mm 0.00 in0.0 mm 0.00 in0.0 mm
09:19 PM 56.4°F13.6°C 50.9°F10.5°C 82% 3.0 mph SE4.8 kmh SE 9.0 mph14.5 kmh 29.63 in1003.4 mb 0.00 in0.0 mm 0.00 in0.0 mm 0.00 in0.0 mm
09:24 PM 56.6°F13.7°C 51.1°F10.6°C 82% 4.0 mph SE6.4 kmh SE 9.0 mph14.5 kmh 29.63 in1003.4 mb 0.00 in0.0 mm 0.00 in0.0 mm 0.00 in0.0 mm
09:29 PM 56.7°F13.7°C 51.2°F10.7°C 82% 1.0 mph S1.6 kmh S 10.0 mph16.1 kmh 29.63 in1003.4 mb 0.00 in0.0 mm 0.00 in0.0 mm 0.00 in0.0 mm
09:34 PM 56.7°F13.7°C 51.2°F10.7°C 82% Calm Calm 10.0 mph16.1 kmh 29.63 in1003.4 mb 0.00 in0.0 mm 0.00 in0.0 mm 0.00 in0.0 mm
09:39 PM 56.8°F13.8°C 50.9°F10.5°C 81% 6.0 mph SE9.7 kmh SE 10.0 mph16.1 kmh 29.63 in1003.4 mb 0.00 in0.0 mm 0.00 in0.0 mm 0.00 in0.0 mm
09:44 PM 56.8°F13.8°C 50.9°F10.5°C 81% 4.0 mph SSE6.4 kmh SSE 10.0 mph16.1 kmh 29.63 in1003.4 mb 0.00 in0.0 mm 0.00 in0.0 mm 0.00 in0.0 mm
09:49 PM 56.8°F13.8°C 51.3°F10.7°C 82% Calm Calm 8.0 mph12.9 kmh 29.63 in1003.4 mb 0.00 in0.0 mm 0.00 in0.0 mm 0.00 in0.0 mm
09:54 PM 56.8°F13.8°C 51.3°F10.7°C 82% Calm Calm 8.0 mph12.9 kmh 29.63 in1003.4 mb 0.00 in0.0 mm 0.00 in0.0 mm 0.00 in0.0 mm
09:59 PM 56.7°F13.7°C 50.8°F10.4°C 81% Calm Calm 5.0 mph8.0 kmh 29.63 in1003.4 mb 0.00 in0.0 mm 0.00 in0.0 mm 0.00 in0.0 mm
10:04 PM 56.7°F13.7°C 51.2°F10.7°C 82% Calm Calm -- 29.63 in1003.4 mb 0.00 in0.0 mm 0.00 in0.0 mm 0.00 in0.0 mm
10:09 PM 56.6°F13.7°C 51.1°F10.6°C 82% Calm Calm -- 29.63 in1003.4 mb 0.00 in0.0 mm 0.00 in0.0 mm 0.00 in0.0 mm
10:14 PM 56.6°F13.7°C 51.1°F10.6°C 82% Calm Calm 8.0 mph12.9 kmh 29.64 in1003.7 mb 0.00 in0.0 mm 0.00 in0.0 mm 0.00 in0.0 mm
10:19 PM 56.5°F13.6°C 51.0°F10.6°C 82% Calm Calm 8.0 mph12.9 kmh 29.63 in1003.4 mb 0.00 in0.0 mm 0.00 in0.0 mm 0.00 in0.0 mm
10:24 PM 56.4°F13.6°C 50.9°F10.5°C 82% Calm Calm 4.0 mph6.4 kmh 29.63 in1003.4 mb 0.00 in0.0 mm 0.00 in0.0 mm 0.00 in0.0 mm
10:29 PM 56.3°F13.5°C 50.8°F10.4°C 82% Calm Calm -- 29.63 in1003.4 mb 0.00 in0.0 mm 0.00 in0.0 mm 0.00 in0.0 mm
10:34 PM 56.2°F13.4°C 50.7°F10.4°C 82% Calm Calm 6.0 mph9.7 kmh 29.63 in1003.4 mb 0.00 in0.0 mm 0.00 in0.0 mm 0.00 in0.0 mm
10:39 PM 56.2°F13.4°C 50.7°F10.4°C 82% 1.0 mph SSE1.6 kmh SSE 7.0 mph11.3 kmh 29.63 in1003.4 mb 0.00 in0.0 mm 0.00 in0.0 mm 0.00 in0.0 mm
10:44 PM 56.1°F13.4°C 50.6°F10.3°C 82% 1.0 mph S1.6 kmh S 9.0 mph14.5 kmh 29.63 in1003.4 mb 0.00 in0.0 mm 0.00 in0.0 mm 0.00 in0.0 mm
10:49 PM 56.0°F13.3°C 50.5°F10.3°C 82% Calm Calm 9.0 mph14.5 kmh 29.63 in1003.4 mb 0.00 in0.0 mm 0.00 in0.0 mm 0.00 in0.0 mm
10:54 PM 55.9°F13.3°C 50.4°F10.2°C 82% Calm Calm 9.0 mph14.5 kmh 29.63 in1003.4 mb 0.00 in0.0 mm 0.00 in0.0 mm 0.00 in0.0 mm
10:59 PM 55.8°F13.2°C 50.6°F10.3°C 83% Calm Calm 4.0 mph6.4 kmh 29.63 in1003.4 mb 0.00 in0.0 mm 0.00 in0.0 mm 0.00 in0.0 mm
11:04 PM 55.7°F13.2°C 50.5°F10.3°C 83% Calm Calm 6.0 mph9.7 kmh 29.63 in1003.4 mb 0.00 in0.0 mm 0.00 in0.0 mm 0.00 in0.0 mm
11:09 PM 55.7°F13.2°C 50.5°F10.3°C 83% Calm Calm 7.0 mph11.3 kmh 29.63 in1003.4 mb 0.00 in0.0 mm 0.00 in0.0 mm 0.00 in0.0 mm
11:14 PM 55.7°F13.2°C 50.5°F10.3°C 83% Calm Calm 5.0 mph8.0 kmh 29.63 in1003.4 mb 0.00 in0.0 mm 0.00 in0.0 mm 0.00 in0.0 mm
11:19 PM 55.7°F13.2°C 50.9°F10.5°C 84% 7.0 mph SSW11.3 kmh SSW 11.0 mph17.7 kmh 29.64 in1003.7 mb 0.00 in0.0 mm 0.00 in0.0 mm 0.00 in0.0 mm
11:24 PM 55.7°F13.2°C 50.9°F10.5°C 84% 5.0 mph S8.0 kmh S 11.0 mph17.7 kmh 29.64 in1003.7 mb 0.00 in0.0 mm 0.00 in0.0 mm 0.00 in0.0 mm
11:29 PM 55.8°F13.2°C 51.0°F10.6°C 84% 4.0 mph S6.4 kmh S 11.0 mph17.7 kmh 29.64 in1003.7 mb 0.00 in0.0 mm 0.00 in0.0 mm 0.00 in0.0 mm
11:34 PM 55.9°F13.3°C 50.7°F10.4°C 83% 4.0 mph S6.4 kmh S 11.0 mph17.7 kmh 29.64 in1003.7 mb 0.00 in0.0 mm 0.00 in0.0 mm 0.00 in0.0 mm
11:39 PM 55.9°F13.3°C 50.7°F10.4°C 83% 5.0 mph SSW8.0 kmh SSW 10.0 mph16.1 kmh 29.64 in1003.7 mb 0.00 in0.0 mm 0.00 in0.0 mm 0.00 in0.0 mm
11:44 PM 55.9°F13.3°C 50.7°F10.4°C 83% 4.0 mph S6.4 kmh S 12.0 mph19.3 kmh 29.64 in1003.7 mb 0.00 in0.0 mm 0.00 in0.0 mm 0.00 in0.0 mm
11:49 PM 55.8°F13.2°C 50.6°F10.3°C 83% Calm Calm 12.0 mph19.3 kmh 29.64 in1003.7 mb 0.00 in0.0 mm 0.00 in0.0 mm 0.00 in0.0 mm
11:54 PM 55.8°F13.2°C 50.6°F10.3°C 83% 4.0 mph S6.4 kmh S 12.0 mph19.3 kmh 29.64 in1003.7 mb 0.00 in0.0 mm 0.00 in0.0 mm 0.00 in0.0 mm
11:59 PM 55.7°F13.2°C 50.5°F10.3°C 83% Calm Calm 12.0 mph19.3 kmh 29.64 in1003.7 mb 0.00 in0.0 mm 0.00 in0.0 mm 0.00 in0.0 mm